Time;durP1;ratioP1;P1;durP2;ratioP2;P2;SDS_P1;SDS_P2;PMS_P1;PMS_P2;Temp;Humidity;BMP_temperature;BMP_pressure;BME280_temperature;BME280_humidity;BME280_pressure;Samples;Min_cycle;Max_cycle;Signal;HPM_P1;HPM_P2
2023/06/14 00:01:55;;;;;;;;;;;;;;;;;;5072045;28;20011;-69
2023/06/14 00:04:25;;;;;;;;;;;;;;;;;;5072273;28;20084;-69
2023/06/14 00:06:52;;;;;;;;;;;;;;;;;;5071598;28;19920;-69
2023/06/14 00:09:19;;;;;;;;;;;;;;;;;;5071722;28;19967;-69
2023/06/14 00:11:46;;;;;;;;;;;;;;;;;;5071346;28;19920;-69
2023/06/14 00:14:13;;;;;;;;;;;;;;;;;;5070933;28;20298;-69
2023/06/14 00:16:42;;;;;;;;;;;;;;;;;;5071150;28;19921;-69
2023/06/14 00:19:10;;;;;;;;;;;;;;;;;;5071646;28;19920;-70
2023/06/14 00:21:36;;;;;;;;;;;;;;;;;;5070850;28;20479;-69
2023/06/14 00:24:03;;;;;;;;;;;;;;;;;;5071479;28;20027;-69
2023/06/14 00:26:29;;;;;;;;;;;;;;;;;;5071110;28;19920;-69
2023/06/14 00:28:57;;;;;;;;;;;;;;;;;;5071570;28;19920;-69
2023/06/14 00:31:23;;;;;;;;;;;;;;;;;;5070893;28;19926;-69
2023/06/14 00:33:50;;;;;;;;;;;;;;;;;;5071914;28;20330;-69
2023/06/14 00:36:16;;;;;;;;;;;;;;;;;;5071517;28;20110;-69
2023/06/14 00:38:42;;;;;;;;;;;;;;;;;;5071395;28;19931;-70
2023/06/14 00:41:09;;;;;;;;;;;;;;;;;;5070869;28;19920;-69
2023/06/14 00:43:35;;;;;;;;;;;;;;;;;;5071105;28;19924;-69
2023/06/14 00:46:03;;;;;;;;;;;;;;;;;;5071138;28;19920;-69
2023/06/14 00:48:31;;;;;;;;;;;;;;;;;;5070813;28;20301;-69
2023/06/14 00:50:58;;;;;;;;;;;;;;;;;;5070662;28;19921;-69
2023/06/14 00:53:25;;;;;;;;;;;;;;;;;;5070715;28;19928;-70
2023/06/14 00:55:51;;;;;;;;;;;;;;;;;;5071239;28;19920;-70
2023/06/14 00:58:18;;;;;;;;;;;;;;;;;;5071112;28;20344;-69
2023/06/14 01:00:44;;;;;;;;;;;;;;;;;;5070667;28;19924;-69
2023/06/14 01:03:13;;;;;;;;;;;;;;;;;;5070663;28;19928;-70
2023/06/14 01:05:40;;;;;;;;;;;;;;;;;;5070721;28;19928;-69
2023/06/14 01:08:14;;;;;;;;;;;;;;;;;;5070521;28;19921;-70
2023/06/14 01:10:43;;;;;;;;;;;;;;;;;;5070795;28;20366;-70
2023/06/14 01:13:13;;;;;;;;;;;;;;;;;;5070629;28;19920;-70
2023/06/14 01:15:40;;;;;;;;;;;;;;;;;;5070770;28;19927;-69
2023/06/14 01:18:06;;;;;;;;;;;;;;;;;;5070483;28;19924;-70
2023/06/14 01:20:36;;;;;;;;;;;;;;;;;;5070157;28;20313;-69
2023/06/14 01:23:04;;;;;;;;;;;;;;;;;;5070836;28;19966;-69
2023/06/14 01:25:30;;;;;;;;;;;;;;;;;;5069696;28;19920;-69
2023/06/14 01:27:59;;;;;;;;;;;;;;;;;;5070958;28;19920;-69
2023/06/14 01:30:26;;;;;;;;;;;;;;;;;;5069818;28;19943;-69
2023/06/14 01:32:53;;;;;;;;;;;;;;;;;;5070516;28;19924;-69
2023/06/14 01:35:19;;;;;;;;;;;;;;;;;;5070089;28;19921;-70
2023/06/14 01:37:47;;;;;;;;;;;;;;;;;;5070592;28;20369;-70
2023/06/14 01:40:15;;;;;;;;;;;;;;;;;;5069723;28;20282;-69
2023/06/14 01:42:42;;;;;;;;;;;;;;;;;;5070770;28;19920;-69
2023/06/14 01:45:09;;;;;;;;;;;;;;;;;;5069883;28;19921;-69
2023/06/14 01:47:36;;;;;;;;;;;;;;;;;;5070430;28;19928;-71
2023/06/14 01:50:02;;;;;;;;;;;;;;;;;;5064302;28;19921;-72
2023/06/14 01:52:29;;;;;;;;;;;;;;;;;;5049969;28;19960;-68
2023/06/14 01:54:55;;;;;;;;;;;;;;;;;;5050170;28;19921;-71
2023/06/14 01:57:23;;;;;;;;;;;;;;;;;;5049709;28;20392;-71
2023/06/14 01:59:50;;;;;;;;;;;;;;;;;;5049625;28;19925;-72
2023/06/14 02:02:17;;;;;;;;;;;;;;;;;;5050006;28;20641;-69
2023/06/14 02:04:43;;;;;;;;;;;;;;;;;;5051336;28;19943;-71
2023/06/14 02:07:09;;;;;;;;;;;;;;;;;;5051038;28;19921;-72
2023/06/14 02:09:36;;;;;;;;;;;;;;;;;;5050277;28;19927;-69
2023/06/14 02:12:02;;;;;;;;;;;;;;;;;;5049823;28;19927;-71
2023/06/14 02:14:30;;;;;;;;;;;;;;;;;;5050095;28;19927;-70
2023/06/14 02:16:57;;;;;;;;;;;;;;;;;;5049962;28;19927;-71
2023/06/14 02:19:23;;;;;;;;;;;;;;;;;;5050032;28;19927;-71
2023/06/14 02:21:50;;;;;;;;;;;;;;;;;;5049605;28;20067;-71
2023/06/14 02:24:16;;;;;;;;;;;;;;;;;;5049686;28;20388;-71
2023/06/14 02:26:42;;;;;;;;;;;;;;;;;;5050049;28;19921;-71
2023/06/14 02:29:10;;;;;;;;;;;;;;;;;;5049790;28;19931;-71
2023/06/14 02:31:38;;;;;;;;;;;;;;;;;;5049761;28;19927;-70
2023/06/14 02:34:05;;;;;;;;;;;;;;;;;;5050010;28;20389;-70
2023/06/14 02:36:31;;;;;;;;;;;;;;;;;;5050461;28;19950;-71
2023/06/14 02:38:58;;;;;;;;;;;;;;;;;;5053226;28;19927;-71
2023/06/14 02:41:25;;;;;;;;;;;;;;;;;;5053100;28;19925;-71
2023/06/14 02:43:52;;;;;;;;;;;;;;;;;;5053408;28;20565;-71
2023/06/14 02:46:18;;;;;;;;;;;;;;;;;;5053709;28;19921;-71
2023/06/14 02:48:46;;;;;;;;;;;;;;;;;;5053529;28;20386;-71
2023/06/14 02:51:13;;;;;;;;;;;;;;;;;;5052899;28;19921;-71
2023/06/14 02:53:40;;;;;;;;;;;;;;;;;;5053850;28;19921;-71
2023/06/14 02:56:06;;;;;;;;;;;;;;;;;;5052932;28;20382;-70
2023/06/14 02:58:33;;;;;;;;;;;;;;;;;;5053473;28;19920;-71
2023/06/14 03:01:02;;;;;;;;;;;;;;;;;;5052235;28;19974;-71
2023/06/14 03:03:29;;;;;;;;;;;;;;;;;;5053129;28;20019;-71
2023/06/14 03:05:56;;;;;;;;;;;;;;;;;;5052677;28;19925;-71
2023/06/14 03:08:27;;;;;;;;;;;;;;;;;;5053084;28;19927;-71
2023/06/14 03:10:53;;;;;;;;;;;;;;;;;;5052532;28;19928;-70
2023/06/14 03:13:20;;;;;;;;;;;;;;;;;;5052921;28;19920;-71
2023/06/14 03:15:47;;;;;;;;;;;;;;;;;;5052782;28;19921;-72
2023/06/14 03:18:14;;;;;;;;;;;;;;;;;;5052750;28;19921;-71
2023/06/14 03:20:42;;;;;;;;;;;;;;;;;;5052432;28;19927;-71
2023/06/14 03:23:10;;;;;;;;;;;;;;;;;;5052279;28;19927;-71
2023/06/14 03:25:38;;;;;;;;;;;;;;;;;;5071257;22;20484;-68
2023/06/14 03:28:05;;;;;;;;;;;;;;;;;;5092419;28;19973;-68
2023/06/14 03:30:31;;;;;;;;;;;;;;;;;;5092815;28;20384;-68
2023/06/14 03:33:00;;;;;;;;;;;;;;;;;;5092362;28;19957;-68
2023/06/14 03:35:27;;;;;;;;;;;;;;;;;;5092840;28;19931;-68
2023/06/14 03:37:53;;;;;;;;;;;;;;;;;;5092624;28;19920;-68
2023/06/14 03:40:21;;;;;;;;;;;;;;;;;;5093000;28;19981;-68
2023/06/14 03:42:48;;;;;;;;;;;;;;;;;;5092690;28;19920;-68
2023/06/14 03:45:14;;;;;;;;;;;;;;;;;;5092728;28;20274;-69
2023/06/14 03:47:40;;;;;;;;;;;;;;;;;;5092371;28;19942;-68
2023/06/14 03:50:07;;;;;;;;;;;;;;;;;;5092343;28;19927;-68
2023/06/14 03:52:34;;;;;;;;;;;;;;;;;;5093171;28;19932;-68
2023/06/14 03:55:01;;;;;;;;;;;;;;;;;;5093230;28;19980;-68
2023/06/14 03:57:28;;;;;;;;;;;;;;;;;;5093099;28;19926;-68
2023/06/14 03:59:55;;;;;;;;;;;;;;;;;;5086163;28;19924;-68
2023/06/14 04:02:22;;;;;;;;;;;;;;;;;;5072756;28;19920;-68
2023/06/14 04:04:48;;;;;;;;;;;;;;;;;;5078323;28;20007;-68
2023/06/14 04:07:15;;;;;;;;;;;;;;;;;;5084091;28;20385;-68
2023/06/14 04:09:41;;;;;;;;;;;;;;;;;;5091252;28;19962;-68
2023/06/14 04:12:08;;;;;;;;;;;;;;;;;;5092368;28;19927;-68
2023/06/14 04:14:36;;;;;;;;;;;;;;;;;;5091334;28;19928;-68
2023/06/14 04:17:03;;;;;;;;;;;;;;;;;;5092322;28;19982;-68
2023/06/14 04:19:29;;;;;;;;;;;;;;;;;;5091458;28;19920;-68
2023/06/14 04:21:55;;;;;;;;;;;;;;;;;;5091951;28;19931;-68
2023/06/14 04:24:23;;;;;;;;;;;;;;;;;;5092463;28;19920;-68
2023/06/14 04:26:51;;;;;;;;;;;;;;;;;;5091711;28;20373;-68
2023/06/14 04:29:19;;;;;;;;;;;;;;;;;;5090949;28;19919;-68
2023/06/14 04:31:47;;;;;;;;;;;;;;;;;;5078528;28;20416;-68
2023/06/14 04:34:16;;;;;;;;;;;;;;;;;;5092156;28;19926;-69
2023/06/14 04:36:49;;;;;;;;;;;;;;;;;;5090345;28;19924;-68
2023/06/14 04:39:15;;;;;;;;;;;;;;;;;;5091448;28;19978;-68
2023/06/14 04:41:41;;;;;;;;;;;;;;;;;;5090909;28;19920;-68
2023/06/14 04:44:09;;;;;;;;;;;;;;;;;;5091791;28;20399;-68
2023/06/14 04:46:43;;;;;;;;;;;;;;;;;;5091532;28;19980;-68
2023/06/14 04:49:14;;;;;;;;;;;;;;;;;;5091612;28;19920;-68
2023/06/14 04:51:41;;;;;;;;;;;;;;;;;;5091313;28;20361;-68
2023/06/14 04:54:13;;;;;;;;;;;;;;;;;;5092280;28;19920;-68
2023/06/14 04:56:40;;;;;;;;;;;;;;;;;;5091216;28;19920;-68
2023/06/14 04:59:06;;;;;;;;;;;;;;;;;;5090520;28;19942;-68
2023/06/14 05:01:33;;;;;;;;;;;;;;;;;;5091186;28;20347;-68
2023/06/14 05:03:59;;;;;;;;;;;;;;;;;;5090274;28;19920;-69
2023/06/14 05:06:27;;;;;;;;;;;;;;;;;;5091703;28;19924;-68
2023/06/14 05:08:53;;;;;;;;;;;;;;;;;;5091059;28;19929;-68
2023/06/14 05:11:20;;;;;;;;;;;;;;;;;;5090815;28;19943;-68
2023/06/14 05:13:46;;;;;;;;;;;;;;;;;;5091453;28;19946;-68
2023/06/14 05:16:15;;;;;;;;;;;;;;;;;;5091442;28;19924;-68
2023/06/14 05:18:42;;;;;;;;;;;;;;;;;;5090649;28;19974;-68
2023/06/14 05:21:08;;;;;;;;;;;;;;;;;;5090610;28;20413;-68
2023/06/14 05:23:36;;;;;;;;;;;;;;;;;;5091132;28;20265;-68
2023/06/14 05:26:04;;;;;;;;;;;;;;;;;;5090694;28;19927;-68
2023/06/14 05:28:30;;;;;;;;;;;;;;;;;;5091104;28;19973;-68
2023/06/14 05:30:58;;;;;;;;;;;;;;;;;;5089900;28;20407;-68
2023/06/14 05:33:24;;;;;;;;;;;;;;;;;;5091246;28;19920;-69
2023/06/14 05:35:50;;;;;;;;;;;;;;;;;;5090386;28;19920;-69
2023/06/14 05:38:17;;;;;;;;;;;;;;;;;;5091061;28;19920;-68
2023/06/14 05:40:44;;;;;;;;;;;;;;;;;;5089928;28;19920;-68
2023/06/14 05:43:11;;;;;;;;;;;;;;;;;;5090973;28;19920;-68
2023/06/14 05:45:37;;;;;;;;;;;;;;;;;;5090468;28;19920;-68
2023/06/14 05:48:04;;;;;;;;;;;;;;;;;;5089934;28;19966;-68
2023/06/14 05:50:31;;;;;;;;;;;;;;;;;;5090484;28;19967;-68
2023/06/14 05:52:57;;;;;;;;;;;;;;;;;;5090737;28;20391;-68
2023/06/14 05:55:23;;;;;;;;;;;;;;;;;;5090174;28;19920;-68
2023/06/14 05:57:51;;;;;;;;;;;;;;;;;;5090969;28;20400;-68
2023/06/14 06:00:19;;;;;;;;;;;;;;;;;;5090445;28;19920;-68
2023/06/14 06:02:47;;;;;;;;;;;;;;;;;;5089058;28;19989;-68
2023/06/14 06:05:15;;;;;;;;;;;;;;;;;;5078779;28;19920;-68
2023/06/14 06:07:44;;;;;;;;;;;;;;;;;;5078180;28;19942;-68
2023/06/14 06:10:10;;;;;;;;;;;;;;;;;;5086694;28;19924;-68
2023/06/14 06:12:37;;;;;;;;;;;;;;;;;;5094334;28;19927;-68
2023/06/14 06:15:06;;;;;;;;;;;;;;;;;;5094768;28;19920;-68
2023/06/14 06:17:32;;;;;;;;;;;;;;;;;;5092017;28;20582;-68
2023/06/14 06:19:58;;;;;;;;;;;;;;;;;;5080471;28;20308;-69
2023/06/14 06:22:25;;;;;;;;;;;;;;;;;;5089142;28;19920;-68
2023/06/14 06:24:51;;;;;;;;;;;;;;;;;;5093599;28;19927;-68
2023/06/14 06:27:18;;;;;;;;;;;;;;;;;;5091986;28;19920;-68
2023/06/14 06:29:45;;;;;;;;;;;;;;;;;;5090490;28;20450;-67
2023/06/14 06:32:12;;;;;;;;;;;;;;;;;;5092540;28;19934;-68
2023/06/14 06:34:39;;;;;;;;;;;;;;;;;;5090381;28;19920;-68
2023/06/14 06:37:06;;;;;;;;;;;;;;;;;;5087669;28;19971;-68
2023/06/14 06:39:32;;;;;;;;;;;;;;;;;;5083585;28;19983;-68
2023/06/14 06:41:59;;;;;;;;;;;;;;;;;;5085508;28;19919;-68
2023/06/14 06:44:25;;;;;;;;;;;;;;;;;;5092374;28;20300;-68
2023/06/14 06:46:51;;;;;;;;;;;;;;;;;;5092675;28;19920;-67
2023/06/14 06:49:19;;;;;;;;;;;;;;;;;;5093722;28;20369;-67
2023/06/14 06:51:59;;;;;;;;;;;;;;;;;;5092913;28;20588;-67
2023/06/14 06:54:26;;;;;;;;;;;;;;;;;;5093836;28;20020;-68
2023/06/14 06:56:52;;;;;;;;;;;;;;;;;;5088455;28;20036;-68
2023/06/14 06:59:18;;;;;;;;;;;;;;;;;;5092310;28;19927;-68
2023/06/14 07:01:45;;;;;;;;;;;;;;;;;;5087672;28;20269;-68
2023/06/14 07:04:11;;;;;;;;;;;;;;;;;;5090043;28;19975;-68
2023/06/14 07:06:39;;;;;;;;;;;;;;;;;;5089286;28;20022;-68
2023/06/14 07:09:08;;;;;;;;;;;;;;;;;;5089883;28;20323;-68
2023/06/14 07:11:34;;;;;;;;;;;;;;;;;;5080335;28;19963;-68
2023/06/14 07:14:00;;;;;;;;;;;;;;;;;;5091305;28;19920;-68
2023/06/14 07:16:27;;;;;;;;;;;;;;;;;;5092294;28;19947;-68
2023/06/14 07:18:53;;;;;;;;;;;;;;;;;;5092754;28;19920;-68
2023/06/14 07:21:20;;;;;;;;;;;;;;;;;;5084397;28;20292;-68
2023/06/14 07:23:47;;;;;;;;;;;;;;;;;;5092666;28;19920;-68
2023/06/14 07:26:14;;;;;;;;;;;;;;;;;;5092685;28;20242;-68
2023/06/14 07:28:40;;;;;;;;;;;;;;;;;;5089022;28;19943;-68
2023/06/14 07:31:07;;;;;;;;;;;;;;;;;;5078891;28;19970;-68
2023/06/14 07:33:33;;;;;;;;;;;;;;;;;;5085893;28;20369;-68
2023/06/14 07:36:00;;;;;;;;;;;;;;;;;;5081047;28;19920;-68
2023/06/14 07:38:27;;;;;;;;;;;;;;;;;;5090675;28;19924;-68
2023/06/14 07:40:54;;;;;;;;;;;;;;;;;;5091724;28;19920;-68
2023/06/14 07:43:21;;;;;;;;;;;;;;;;;;5091787;28;19920;-68
2023/06/14 07:45:47;;;;;;;;;;;;;;;;;;5092325;28;19930;-68
2023/06/14 07:48:14;;;;;;;;;;;;;;;;;;5082556;28;19927;-68
2023/06/14 07:50:40;;;;;;;;;;;;;;;;;;5089507;28;19920;-68
2023/06/14 07:53:07;;;;;;;;;;;;;;;;;;5083437;28;20397;-69
2023/06/14 07:55:36;;;;;;;;;;;;;;;;;;5081916;28;19995;-68
2023/06/14 07:58:04;;;;;;;;;;;;;;;;;;5091514;28;20010;-68
2023/06/14 08:00:31;;;;;;;;;;;;;;;;;;5091378;28;19924;-69
2023/06/14 08:02:59;;;;;;;;;;;;;;;;;;5092207;28;20574;-68
2023/06/14 08:05:26;;;;;;;;;;;;;;;;;;5086844;28;19981;-69
2023/06/14 08:07:53;;;;;;;;;;;;;;;;;;5078082;28;19928;-68
2023/06/14 08:10:19;;;;;;;;;;;;;;;;;;5082191;28;19920;-69
2023/06/14 08:12:46;;;;;;;;;;;;;;;;;;5090385;28;20355;-69
2023/06/14 08:15:14;;;;;;;;;;;;;;;;;;5092214;28;19973;-69
2023/06/14 08:17:40;;;;;;;;;;;;;;;;;;5080931;28;19926;-69
2023/06/14 08:20:07;;;;;;;;;;;;;;;;;;5085701;28;19920;-69
2023/06/14 08:22:36;;;;;;;;;;;;;;;;;;5080464;28;20270;-69
2023/06/14 08:25:03;;;;;;;;;;;;;;;;;;5084036;28;19981;-69
2023/06/14 08:27:29;;;;;;;;;;;;;;;;;;5085273;28;20002;-71
2023/06/14 08:29:56;;;;;;;;;;;;;;;;;;5086109;28;20273;-71
2023/06/14 08:32:23;;;;;;;;;;;;;;;;;;5089556;28;20400;-71
2023/06/14 08:34:50;;;;;;;;;;;;;;;;;;5088254;28;19920;-70
2023/06/14 08:37:16;;;;;;;;;;;;;;;;;;5085582;28;19920;-71
2023/06/14 08:39:43;;;;;;;;;;;;;;;;;;5082592;28;19926;-70
2023/06/14 08:42:10;;;;;;;;;;;;;;;;;;5084697;28;19924;-72
2023/06/14 08:44:37;;;;;;;;;;;;;;;;;;5078716;28;20188;-71
2023/06/14 08:47:04;;;;;;;;;;;;;;;;;;5085995;28;19927;-70
2023/06/14 08:49:32;;;;;;;;;;;;;;;;;;5087122;28;19923;-71
2023/06/14 08:51:59;;;;;;;;;;;;;;;;;;5085442;28;19944;-70
2023/06/14 08:54:27;;;;;;;;;;;;;;;;;;5089953;28;19919;-69
2023/06/14 08:56:57;;;;;;;;;;;;;;;;;;5091116;28;20006;-70
2023/06/14 08:59:24;;;;;;;;;;;;;;;;;;5084173;28;19930;-70
2023/06/14 09:01:52;;;;;;;;;;;;;;;;;;5081583;28;19923;-70
2023/06/14 09:04:19;;;;;;;;;;;;;;;;;;5084974;28;19931;-71
2023/06/14 09:06:52;;;;;;;;;;;;;;;;;;5081893;28;19926;-70
2023/06/14 09:09:19;;;;;;;;;;;;;;;;;;5071691;28;20401;-70
2023/06/14 09:11:46;;;;;;;;;;;;;;;;;;5090214;28;19954;-70
2023/06/14 09:14:13;;;;;;;;;;;;;;;;;;5106896;28;19920;-70
2023/06/14 09:16:39;;;;;;;;;;;;;;;;;;5105416;28;19920;-72
2023/06/14 09:19:06;;;;;;;;;;;;;;;;;;5071522;28;19924;-69
2023/06/14 09:21:35;;;;;;;;;;;;;;;;;;5071297;28;19977;-70
2023/06/14 09:24:04;;;;;;;;;;;;;;;;;;5071536;28;19967;-71
2023/06/14 09:26:30;;;;;;;;;;;;;;;;;;5088307;22;19927;-71
2023/06/14 09:28:57;;;;;;;;;;;;;;;;;;5069828;28;20283;-70
2023/06/14 09:31:23;;;;;;;;;;;;;;;;;;5077941;28;20297;-71
2023/06/14 09:33:50;;;;;;;;;;;;;;;;;;5077975;28;19925;-71
2023/06/14 09:36:19;;;;;;;;;;;;;;;;;;5076693;28;20018;-71
2023/06/14 09:38:52;;;;;;;;;;;;;;;;;;5084106;28;19920;-71
2023/06/14 09:41:20;;;;;;;;;;;;;;;;;;5081145;28;20487;-71
2023/06/14 09:43:47;;;;;;;;;;;;;;;;;;5073273;28;19928;-71
2023/06/14 09:46:14;;;;;;;;;;;;;;;;;;5081703;28;20197;-71
2023/06/14 09:48:42;;;;;;;;;;;;;;;;;;5085266;28;20539;-71
2023/06/14 09:51:10;;;;;;;;;;;;;;;;;;5090230;28;19980;-71
2023/06/14 09:53:37;;;;;;;;;;;;;;;;;;5084221;28;20015;-71
2023/06/14 09:56:05;;;;;;;;;;;;;;;;;;5084375;28;20113;-70
2023/06/14 09:58:35;;;;;;;;;;;;;;;;;;5088471;28;19934;-70
2023/06/14 10:01:01;;;;;;;;;;;;;;;;;;5089490;28;19920;-71
2023/06/14 10:03:29;;;;;;;;;;;;;;;;;;5086733;28;19926;-71
2023/06/14 10:06:00;;;;;;;;;;;;;;;;;;5080844;28;19920;-70
2023/06/14 10:08:28;;;;;;;;;;;;;;;;;;5076440;28;20284;-70
2023/06/14 10:10:56;;;;;;;;;;;;;;;;;;5076482;28;19935;-71
2023/06/14 10:13:22;;;;;;;;;;;;;;;;;;5086299;28;20018;-71
2023/06/14 10:15:56;;;;;;;;;;;;;;;;;;5081967;28;20031;-72
2023/06/14 10:18:27;;;;;;;;;;;;;;;;;;5083712;28;20010;-71
2023/06/14 10:20:56;;;;;;;;;;;;;;;;;;5081968;28;19921;-70
2023/06/14 10:23:24;;;;;;;;;;;;;;;;;;5094603;28;19927;-71
2023/06/14 10:25:51;;;;;;;;;;;;;;;;;;5096974;28;19929;-71
2023/06/14 10:28:18;;;;;;;;;;;;;;;;;;5086481;28;20163;-71
2023/06/14 10:31:06;;;;;;;;;;;;;;;;;;5083530;28;19946;-71
2023/06/14 10:33:34;;;;;;;;;;;;;;;;;;5087119;28;20016;-71
2023/06/14 10:36:19;;;;;;;;;;;;;;;;;;5093766;28;19919;-71
2023/06/14 10:38:45;;;;;;;;;;;;;;;;;;5094493;28;19931;-69
2023/06/14 10:41:12;;;;;;;;;;;;;;;;;;5096088;28;19945;-69
2023/06/14 10:43:38;;;;;;;;;;;;;;;;;;5096838;28;20125;-70
2023/06/14 10:46:15;;;;;;;;;;;;;;;;;;5094424;28;19974;-69
2023/06/14 10:48:44;;;;;;;;;;;;;;;;;;5088069;28;19920;-69
2023/06/14 10:51:16;;;;;;;;;;;;;;;;;;5084249;28;19924;-70
2023/06/14 10:53:43;;;;;;;;;;;;;;;;;;5076515;28;19924;-70
2023/06/14 10:56:11;;;;;;;;;;;;;;;;;;5075601;28;19924;-70
2023/06/14 10:58:37;;;;;;;;;;;;;;;;;;5071714;28;19920;-70
2023/06/14 11:01:04;;;;;;;;;;;;;;;;;;5072492;28;19927;-70
2023/06/14 11:03:37;;;;;;;;;;;;;;;;;;5073076;28;19920;-70
2023/06/14 11:06:13;;;;;;;;;;;;;;;;;;5089908;28;20384;-70
2023/06/14 11:08:44;;;;;;;;;;;;;;;;;;5086660;28;20390;-72
2023/06/14 11:11:11;;;;;;;;;;;;;;;;;;5093295;28;20391;-72
2023/06/14 11:13:38;;;;;;;;;;;;;;;;;;5093472;28;19920;-72
2023/06/14 11:16:11;;;;;;;;;;;;;;;;;;5092463;28;19926;-72
2023/06/14 11:18:37;;;;;;;;;;;;;;;;;;5075955;28;20383;-72
2023/06/14 11:21:04;;;;;;;;;;;;;;;;;;5072421;28;20118;-72
2023/06/14 11:23:31;;;;;;;;;;;;;;;;;;5072373;28;19971;-71
2023/06/14 11:25:58;;;;;;;;;;;;;;;;;;5072449;28;19927;-71
2023/06/14 11:28:25;;;;;;;;;;;;;;;;;;5073197;28;19943;-71
2023/06/14 11:31:08;;;;;;;;;;;;;;;;;;5107987;27;20011;-70
2023/06/14 11:33:34;;;;;;;;;;;;;;;;;;5108978;28;20038;-70
2023/06/14 11:36:02;;;;;;;;;;;;;;;;;;5107473;28;19924;-70
2023/06/14 11:38:29;;;;;;;;;;;;;;;;;;5107820;28;20011;-69
2023/06/14 11:40:59;;;;;;;;;;;;;;;;;;5107871;28;19975;-70
2023/06/14 11:43:26;;;;;;;;;;;;;;;;;;5108067;28;20361;-70
2023/06/14 11:45:53;;;;;;;;;;;;;;;;;;5099273;28;19984;-70
2023/06/14 11:48:21;;;;;;;;;;;;;;;;;;5104854;28;20157;-70
2023/06/14 11:50:50;;;;;;;;;;;;;;;;;;5093657;28;20121;-70
2023/06/14 11:53:17;;;;;;;;;;;;;;;;;;5097933;28;19934;-70
2023/06/14 11:55:46;;;;;;;;;;;;;;;;;;5089186;28;20368;-70
2023/06/14 11:58:12;;;;;;;;;;;;;;;;;;5084558;28;19924;-70
2023/06/14 12:00:39;;;;;;;;;;;;;;;;;;5079845;28;20019;-70
2023/06/14 12:03:07;;;;;;;;;;;;;;;;;;5101748;28;19930;-70
2023/06/14 12:05:35;;;;;;;;;;;;;;;;;;5105892;28;19924;-70
2023/06/14 12:08:03;;;;;;;;;;;;;;;;;;5095477;28;19925;-70
2023/06/14 12:10:30;;;;;;;;;;;;;;;;;;5095063;28;19960;-70
2023/06/14 12:13:00;;;;;;;;;;;;;;;;;;5098140;28;20585;-70
2023/06/14 12:15:29;;;;;;;;;;;;;;;;;;5097818;28;19963;-70
2023/06/14 12:17:56;;;;;;;;;;;;;;;;;;5104006;28;19947;-70
2023/06/14 12:20:23;;;;;;;;;;;;;;;;;;5097754;28;20293;-69
2023/06/14 12:22:56;;;;;;;;;;;;;;;;;;5094844;28;19936;-70
2023/06/14 12:25:27;;;;;;;;;;;;;;;;;;5097204;28;20274;-70
2023/06/14 12:27:54;;;;;;;;;;;;;;;;;;5095388;28;19927;-70
2023/06/14 12:30:20;;;;;;;;;;;;;;;;;;5076383;28;20249;-69
2023/06/14 12:32:47;;;;;;;;;;;;;;;;;;5093782;28;20427;-70
2023/06/14 12:35:13;;;;;;;;;;;;;;;;;;5105752;28;20014;-70
2023/06/14 12:37:40;;;;;;;;;;;;;;;;;;5087178;28;19924;-70
2023/06/14 12:40:11;;;;;;;;;;;;;;;;;;5085271;28;19932;-70
2023/06/14 12:42:37;;;;;;;;;;;;;;;;;;5068179;28;19924;-70
2023/06/14 12:45:04;;;;;;;;;;;;;;;;;;5078524;28;19924;-70
2023/06/14 12:47:31;;;;;;;;;;;;;;;;;;5082875;28;20898;-70
2023/06/14 12:49:57;;;;;;;;;;;;;;;;;;5091696;28;19931;-70
2023/06/14 12:52:24;;;;;;;;;;;;;;;;;;5091905;28;20011;-70
2023/06/14 12:54:50;;;;;;;;;;;;;;;;;;5093109;28;20031;-70
2023/06/14 12:57:18;;;;;;;;;;;;;;;;;;5084093;28;20011;-70
2023/06/14 12:59:44;;;;;;;;;;;;;;;;;;5092144;28;19946;-70
2023/06/14 13:02:12;;;;;;;;;;;;;;;;;;5086199;28;20011;-71
2023/06/14 13:04:38;;;;;;;;;;;;;;;;;;5084242;28;19934;-71
2023/06/14 13:07:05;;;;;;;;;;;;;;;;;;5079218;28;20019;-70
2023/06/14 13:09:31;;;;;;;;;;;;;;;;;;5091360;28;20052;-71
2023/06/14 13:11:58;;;;;;;;;;;;;;;;;;5093088;28;19924;-71
2023/06/14 13:14:26;;;;;;;;;;;;;;;;;;5092285;28;19928;-71
2023/06/14 13:16:52;;;;;;;;;;;;;;;;;;5088593;28;20324;-71
2023/06/14 13:19:18;;;;;;;;;;;;;;;;;;5083886;28;19924;-71
2023/06/14 13:21:45;;;;;;;;;;;;;;;;;;5089162;28;19930;-71
2023/06/14 13:24:11;;;;;;;;;;;;;;;;;;5091355;28;19930;-71
2023/06/14 13:26:38;;;;;;;;;;;;;;;;;;5091009;28;19971;-71
2023/06/14 13:29:04;;;;;;;;;;;;;;;;;;5092289;28;19930;-71
2023/06/14 13:31:33;;;;;;;;;;;;;;;;;;5081821;28;20614;-71
2023/06/14 13:33:59;;;;;;;;;;;;;;;;;;5081538;28;19924;-71
2023/06/14 13:36:25;;;;;;;;;;;;;;;;;;5083714;28;20133;-71
2023/06/14 13:38:54;;;;;;;;;;;;;;;;;;5086220;28;19924;-71
2023/06/14 13:41:20;;;;;;;;;;;;;;;;;;5082399;28;19928;-71
2023/06/14 13:43:47;;;;;;;;;;;;;;;;;;5091458;28;19924;-71
2023/06/14 13:46:13;;;;;;;;;;;;;;;;;;5091261;28;19942;-71
2023/06/14 13:48:41;;;;;;;;;;;;;;;;;;5088341;28;20013;-71
2023/06/14 13:51:08;;;;;;;;;;;;;;;;;;5089460;28;19940;-71
2023/06/14 13:53:35;;;;;;;;;;;;;;;;;;5090652;28;19924;-71
2023/06/14 13:56:02;;;;;;;;;;;;;;;;;;5081611;28;19932;-71
2023/06/14 13:58:29;;;;;;;;;;;;;;;;;;5071779;28;20023;-71
2023/06/14 14:00:55;;;;;;;;;;;;;;;;;;5089183;28;20360;-69
2023/06/14 14:03:22;;;;;;;;;;;;;;;;;;5090222;28;19924;-68
2023/06/14 14:05:50;;;;;;;;;;;;;;;;;;5089305;28;19924;-69
2023/06/14 14:08:16;;;;;;;;;;;;;;;;;;5086305;28;19931;-69
2023/06/14 14:10:43;;;;;;;;;;;;;;;;;;5086492;28;19924;-71
2023/06/14 14:13:09;;;;;;;;;;;;;;;;;;5090960;28;19946;-71
2023/06/14 14:15:35;;;;;;;;;;;;;;;;;;5091862;28;20398;-71
2023/06/14 14:18:03;;;;;;;;;;;;;;;;;;5087837;28;19924;-71
2023/06/14 14:20:30;;;;;;;;;;;;;;;;;;5090885;28;19958;-71
2023/06/14 14:22:58;;;;;;;;;;;;;;;;;;5091359;28;19924;-71
2023/06/14 14:25:25;;;;;;;;;;;;;;;;;;5091608;28;19997;-69
2023/06/14 14:27:51;;;;;;;;;;;;;;;;;;5091171;28;20120;-69
2023/06/14 14:30:19;;;;;;;;;;;;;;;;;;5090871;28;20100;-69
2023/06/14 14:32:47;;;;;;;;;;;;;;;;;;5091517;28;20382;-69
2023/06/14 14:35:14;;;;;;;;;;;;;;;;;;5091409;28;19970;-69
2023/06/14 14:37:40;;;;;;;;;;;;;;;;;;5091590;28;19932;-70
2023/06/14 14:40:09;;;;;;;;;;;;;;;;;;5090769;28;19931;-70
2023/06/14 14:42:36;;;;;;;;;;;;;;;;;;5091959;28;20296;-71
2023/06/14 14:45:03;;;;;;;;;;;;;;;;;;5091348;28;19934;-71
2023/06/14 14:47:29;;;;;;;;;;;;;;;;;;5086778;28;19924;-71
2023/06/14 14:49:56;;;;;;;;;;;;;;;;;;5081048;28;20028;-71
2023/06/14 14:52:22;;;;;;;;;;;;;;;;;;5091148;28;19931;-71
2023/06/14 14:54:48;;;;;;;;;;;;;;;;;;5091025;28;19955;-71
2023/06/14 14:57:16;;;;;;;;;;;;;;;;;;5090482;28;19931;-71
2023/06/14 14:59:43;;;;;;;;;;;;;;;;;;5090984;28;19924;-71
2023/06/14 15:02:10;;;;;;;;;;;;;;;;;;5091158;28;20295;-71
2023/06/14 15:04:36;;;;;;;;;;;;;;;;;;5091000;28;20158;-71
2023/06/14 15:07:03;;;;;;;;;;;;;;;;;;5090458;28;20389;-71
2023/06/14 15:09:30;;;;;;;;;;;;;;;;;;5090442;28;19977;-71
2023/06/14 15:11:56;;;;;;;;;;;;;;;;;;5090305;28;19924;-71
2023/06/14 15:14:24;;;;;;;;;;;;;;;;;;5091203;28;20036;-71
2023/06/14 15:16:50;;;;;;;;;;;;;;;;;;5089860;28;19969;-71
2023/06/14 15:19:18;;;;;;;;;;;;;;;;;;5088933;28;20285;-71
2023/06/14 15:21:45;;;;;;;;;;;;;;;;;;5090659;28;20305;-71
2023/06/14 15:24:11;;;;;;;;;;;;;;;;;;5090634;28;19939;-71
2023/06/14 15:26:37;;;;;;;;;;;;;;;;;;5071722;22;20385;-72
2023/06/14 15:29:04;;;;;;;;;;;;;;;;;;5010174;28;20008;-72
2023/06/14 15:31:32;;;;;;;;;;;;;;;;;;5010276;28;19940;-71
2023/06/14 15:33:58;;;;;;;;;;;;;;;;;;5010175;28;19926;-71
2023/06/14 15:36:25;;;;;;;;;;;;;;;;;;5010332;28;19926;-71
2023/06/14 15:38:52;;;;;;;;;;;;;;;;;;5022518;28;19926;-71
2023/06/14 15:41:18;;;;;;;;;;;;;;;;;;5029625;28;20016;-71
2023/06/14 15:43:48;;;;;;;;;;;;;;;;;;5030284;28;20294;-71
2023/06/14 15:46:14;;;;;;;;;;;;;;;;;;5029896;28;20224;-72
2023/06/14 15:48:42;;;;;;;;;;;;;;;;;;5024525;28;19936;-71
2023/06/14 15:51:08;;;;;;;;;;;;;;;;;;5029066;28;19932;-71
2023/06/14 15:53:36;;;;;;;;;;;;;;;;;;5030123;28;19932;-71
2023/06/14 15:56:02;;;;;;;;;;;;;;;;;;5029552;28;19926;-71
2023/06/14 15:58:29;;;;;;;;;;;;;;;;;;5030058;28;19931;-71
2023/06/14 16:00:55;;;;;;;;;;;;;;;;;;5029120;28;20004;-71
2023/06/14 16:03:21;;;;;;;;;;;;;;;;;;5030379;28;19961;-71
2023/06/14 16:05:49;;;;;;;;;;;;;;;;;;5030160;28;20398;-72
2023/06/14 16:08:16;;;;;;;;;;;;;;;;;;5020456;28;19936;-71
2023/06/14 16:10:42;;;;;;;;;;;;;;;;;;5009743;28;20216;-71
2023/06/14 16:13:08;;;;;;;;;;;;;;;;;;5025702;28;20016;-71
2023/06/14 16:15:35;;;;;;;;;;;;;;;;;;5029706;28;19925;-72
2023/06/14 16:18:01;;;;;;;;;;;;;;;;;;5019634;28;19973;-71
2023/06/14 16:20:28;;;;;;;;;;;;;;;;;;5012976;28;19925;-72
2023/06/14 16:22:56;;;;;;;;;;;;;;;;;;5013417;28;19925;-71
2023/06/14 16:25:22;;;;;;;;;;;;;;;;;;5013130;28;19926;-72
2023/06/14 16:27:48;;;;;;;;;;;;;;;;;;5012966;28;19926;-71
2023/06/14 16:30:16;;;;;;;;;;;;;;;;;;5013292;28;19979;-71
2023/06/14 16:32:43;;;;;;;;;;;;;;;;;;5012995;28;19926;-71
2023/06/14 16:35:09;;;;;;;;;;;;;;;;;;5012055;28;19938;-71
2023/06/14 16:37:36;;;;;;;;;;;;;;;;;;5013562;28;19933;-71
2023/06/14 16:40:04;;;;;;;;;;;;;;;;;;5012293;28;19926;-71
2023/06/14 16:42:31;;;;;;;;;;;;;;;;;;5013497;28;19925;-72
2023/06/14 16:44:58;;;;;;;;;;;;;;;;;;5013615;28;19926;-71
2023/06/14 16:47:24;;;;;;;;;;;;;;;;;;5014401;28;19983;-71